createdAt,value
2018-05-31T00:00:42.931Z,22.40
2018-05-31T00:03:10.450Z,21.70
2018-05-31T00:05:38.015Z,24.13
2018-05-31T00:08:06.323Z,23.90
2018-05-31T00:10:33.867Z,23.98
2018-05-31T00:13:01.453Z,25.73
2018-05-31T00:15:28.995Z,26.00
2018-05-31T00:17:56.570Z,26.50
2018-05-31T00:20:24.173Z,25.43
2018-05-31T00:22:52.484Z,24.87
2018-05-31T00:25:20.038Z,23.48
2018-05-31T00:27:47.602Z,24.60
2018-05-31T00:30:17.202Z,23.08
2018-05-31T00:32:44.756Z,23.77
2018-05-31T00:35:13.602Z,23.17
2018-05-31T00:37:41.154Z,24.80
2018-05-31T00:40:08.709Z,22.73
2018-05-31T00:42:36.256Z,24.87
2018-05-31T00:45:03.796Z,22.70
2018-05-31T00:47:31.330Z,22.77
2018-05-31T00:49:59.651Z,24.57
2018-05-31T00:52:27.183Z,25.37
2018-05-31T00:54:54.719Z,26.07
2018-05-31T00:57:23.346Z,27.32
2018-05-31T00:59:50.896Z,26.13
2018-05-31T01:02:18.427Z,24.97
2018-05-31T01:04:45.978Z,24.53
2018-05-31T01:07:23.826Z,25.17
2018-05-31T01:13:41.066Z,27.43
2018-05-31T01:16:08.615Z,25.80
2018-05-31T01:18:36.157Z,25.03
2018-05-31T01:21:03.747Z,22.97
2018-05-31T01:23:31.288Z,22.40
2018-05-31T01:25:58.831Z,21.07
2018-05-31T01:28:26.398Z,25.07
2018-05-31T01:30:53.969Z,25.53
2018-05-31T01:33:21.511Z,24.87
2018-05-31T01:35:50.714Z,21.30
2018-05-31T01:38:29.922Z,24.20
2018-05-31T01:40:58.249Z,23.47
2018-05-31T01:43:26.680Z,22.60
2018-05-31T01:45:54.220Z,23.40
2018-05-31T01:48:21.772Z,24.67
2018-05-31T01:50:49.307Z,25.20
2018-05-31T01:53:16.837Z,24.30
2018-05-31T01:55:45.043Z,24.60
2018-05-31T01:58:13.495Z,22.55
2018-05-31T02:00:41.043Z,22.43
2018-05-31T02:03:08.610Z,23.43
2018-05-31T02:05:36.160Z,21.50
2018-05-31T02:08:03.711Z,27.07
2018-05-31T02:10:32.038Z,25.70
2018-05-31T02:12:59.574Z,24.20
2018-05-31T02:15:27.131Z,24.27
2018-05-31T02:17:55.004Z,23.67
2018-05-31T02:20:22.552Z,23.13
2018-05-31T02:22:50.095Z,21.97
2018-05-31T02:25:17.893Z,22.40
2018-05-31T02:27:45.426Z,22.47
2018-05-31T02:30:14.595Z,21.05
2018-05-31T02:32:42.927Z,20.73
2018-05-31T02:35:10.472Z,20.92
2018-05-31T02:37:38.610Z,20.53
2018-05-31T02:40:07.558Z,21.30
2018-05-31T02:42:35.090Z,20.10
2018-05-31T02:45:02.631Z,20.60
2018-05-31T02:47:30.195Z,20.47
2018-05-31T02:49:58.487Z,19.27
2018-05-31T02:52:26.035Z,20.60
2018-05-31T02:54:53.598Z,18.58
2018-05-31T02:57:21.139Z,20.08
2018-05-31T02:59:48.683Z,18.67
2018-05-31T03:02:17.230Z,20.43
2018-05-31T03:04:44.761Z,21.70
2018-05-31T03:07:12.304Z,20.70
2018-05-31T03:09:39.868Z,20.83
2018-05-31T03:12:07.406Z,20.73
2018-05-31T03:14:34.944Z,20.77
2018-05-31T03:17:02.512Z,24.23
2018-05-31T03:19:30.044Z,21.17
2018-05-31T03:21:57.599Z,22.37
2018-05-31T03:24:25.555Z,20.87
2018-05-31T03:26:53.113Z,18.47
2018-05-31T03:29:20.652Z,18.70
2018-05-31T03:31:48.208Z,20.10
2018-05-31T03:34:16.475Z,19.43
2018-05-31T03:36:44.021Z,19.33
2018-05-31T03:39:11.914Z,19.17
2018-05-31T03:41:39.443Z,20.00
2018-05-31T03:44:07.739Z,19.17
2018-05-31T03:46:35.879Z,18.37
2018-05-31T03:49:03.414Z,19.25
2018-05-31T03:51:30.963Z,19.83
2018-05-31T03:53:58.534Z,19.00
2018-05-31T03:56:26.117Z,19.10
2018-05-31T03:58:53.653Z,19.00
2018-05-31T04:01:22.022Z,20.90
2018-05-31T04:03:49.589Z,17.97
2018-05-31T04:06:17.892Z,20.53
2018-05-31T04:08:46.946Z,16.93
2018-05-31T04:11:25.940Z,18.58
2018-05-31T04:16:21.786Z,19.67
2018-05-31T04:18:49.325Z,19.40
2018-05-31T04:21:16.874Z,20.03
2018-05-31T04:23:45.221Z,20.52
2018-05-31T04:26:13.671Z,21.03
2018-05-31T04:28:41.211Z,19.40
2018-05-31T04:31:09.115Z,20.03
2018-05-31T04:33:36.672Z,19.20
2018-05-31T04:36:04.220Z,20.57
2018-05-31T04:38:31.802Z,28.63
2018-05-31T04:40:59.504Z,28.27
2018-05-31T04:43:27.806Z,23.73
2018-05-31T04:45:55.372Z,19.87
2018-05-31T04:48:22.905Z,19.75
2018-05-31T04:50:50.444Z,17.90
2018-05-31T04:53:18.729Z,18.67
2018-05-31T04:55:47.055Z,17.03
2018-05-31T04:58:15.443Z,18.00
2018-05-31T05:00:43.009Z,17.87
2018-05-31T05:03:10.578Z,17.90
2018-05-31T05:05:38.122Z,18.17
2018-05-31T05:08:05.713Z,18.13
2018-05-31T05:10:34.011Z,17.40
2018-05-31T05:13:01.584Z,16.40
2018-05-31T05:15:29.696Z,17.80
2018-05-31T05:17:57.243Z,17.07
2018-05-31T05:20:24.786Z,16.00
2018-05-31T05:22:52.354Z,16.67
2018-05-31T05:25:19.874Z,16.90
2018-05-31T05:27:47.435Z,14.90
2018-05-31T05:30:16.371Z,16.75
2018-05-31T05:32:43.903Z,15.37
2018-05-31T05:35:11.498Z,17.02
2018-05-31T05:37:39.450Z,15.20
2018-05-31T05:40:07.118Z,14.80
2018-05-31T05:42:34.824Z,14.47
2018-05-31T05:45:03.308Z,13.90
2018-05-31T05:47:31.611Z,12.97
2018-05-31T05:49:59.207Z,12.57
2018-05-31T05:52:26.774Z,11.77
2018-05-31T05:54:54.314Z,10.73
2018-05-31T05:57:21.868Z,10.70
2018-05-31T05:59:50.015Z,9.68
2018-05-31T06:02:17.553Z,9.83
2018-05-31T06:04:45.858Z,9.83
2018-05-31T06:07:25.746Z,9.80
2018-05-31T06:23:52.152Z,8.90
2018-05-31T06:26:19.741Z,8.90
2018-05-31T06:28:47.613Z,9.17
2018-05-31T06:31:16.520Z,9.13
2018-05-31T06:33:44.066Z,8.13
2018-05-31T06:36:11.655Z,8.30
2018-05-31T06:38:39.968Z,8.37
2018-05-31T06:41:07.487Z,8.40
2018-05-31T06:43:36.016Z,7.27
2018-05-31T06:46:04.059Z,7.62
2018-05-31T06:48:31.597Z,8.32
2018-05-31T06:50:59.881Z,7.30
2018-05-31T06:53:27.422Z,7.80
2018-05-31T06:55:55.699Z,6.90
2018-05-31T06:58:23.205Z,7.17
2018-05-31T07:00:50.785Z,7.57
2018-05-31T07:03:18.303Z,7.57
2018-05-31T07:05:45.819Z,7.70
2018-05-31T07:08:14.658Z,7.40
2018-05-31T07:10:42.209Z,8.17
2018-05-31T07:13:09.727Z,8.00
2018-05-31T07:15:37.315Z,7.77
2018-05-31T07:18:04.852Z,12.37
2018-05-31T07:20:32.379Z,8.20
2018-05-31T07:22:59.911Z,7.70
2018-05-31T07:25:27.455Z,8.10
2018-05-31T07:27:54.974Z,8.87
2018-05-31T07:30:23.647Z,8.57
2018-05-31T07:32:51.926Z,7.80
2018-05-31T07:35:19.451Z,8.20
2018-05-31T07:37:47.835Z,8.63
2018-05-31T07:40:16.531Z,7.85
2018-05-31T07:42:44.178Z,7.70
2018-05-31T07:45:12.329Z,8.60
2018-05-31T07:47:40.115Z,8.80
2018-05-31T07:50:07.648Z,8.93
2018-05-31T07:52:35.247Z,8.40
2018-05-31T07:55:02.795Z,8.63
2018-05-31T07:57:30.307Z,8.00
2018-05-31T07:59:58.627Z,7.10
2018-05-31T08:02:26.155Z,7.68
2018-05-31T08:04:53.695Z,8.10
2018-05-31T08:07:22.629Z,8.52
2018-05-31T08:09:50.334Z,7.83
2018-05-31T08:12:17.921Z,8.57
2018-05-31T08:14:46.317Z,7.70
2018-05-31T08:17:15.472Z,6.78
2018-05-31T08:19:42.991Z,7.50
2018-05-31T08:22:10.555Z,8.13
2018-05-31T08:24:38.117Z,7.87
2018-05-31T08:27:07.035Z,7.17
2018-05-31T08:29:34.595Z,7.97
2018-05-31T08:32:02.318Z,8.53
2018-05-31T08:34:29.833Z,8.27
2018-05-31T08:36:58.463Z,8.63
2018-05-31T08:39:25.978Z,8.85
2018-05-31T08:41:54.287Z,8.38
2018-05-31T08:44:21.834Z,10.30
2018-05-31T08:46:49.724Z,8.20
2018-05-31T08:49:17.618Z,9.30
2018-05-31T08:51:45.162Z,8.30
2018-05-31T08:54:14.360Z,8.00
2018-05-31T08:56:41.887Z,8.27
2018-05-31T08:59:09.726Z,9.33
2018-05-31T09:01:38.124Z,7.30
2018-05-31T09:04:05.670Z,7.50
2018-05-31T09:06:33.980Z,8.15
2018-05-31T09:09:01.499Z,7.97
2018-05-31T09:11:29.784Z,9.38
2018-05-31T09:13:57.336Z,7.90
2018-05-31T09:16:25.631Z,8.30
2018-05-31T09:18:53.926Z,7.97
2018-05-31T09:21:21.802Z,8.80
2018-05-31T09:23:49.334Z,8.70
2018-05-31T09:26:16.859Z,7.60
2018-05-31T09:28:44.403Z,7.87
2018-05-31T09:31:11.915Z,8.17
2018-05-31T09:33:39.444Z,8.70
2018-05-31T09:36:07.780Z,8.47
2018-05-31T09:38:35.304Z,9.10
2018-05-31T09:41:02.870Z,8.93
2018-05-31T09:43:30.770Z,9.30
2018-05-31T09:45:58.304Z,8.73
2018-05-31T09:48:26.224Z,8.93
2018-05-31T09:50:53.791Z,9.17
2018-05-31T09:53:21.350Z,9.97
2018-05-31T09:55:49.634Z,9.53
2018-05-31T09:58:25.667Z,9.20
2018-05-31T10:00:55.015Z,10.40
2018-05-31T10:03:23.007Z,10.97
2018-05-31T10:05:50.544Z,10.90
2018-05-31T10:08:18.076Z,10.77
2018-05-31T10:10:45.654Z,12.90
2018-05-31T10:13:14.595Z,12.73
2018-05-31T10:15:42.139Z,13.77
2018-05-31T10:18:09.695Z,14.30
2018-05-31T10:20:37.215Z,15.40
2018-05-31T10:23:05.581Z,15.57
2018-05-31T10:25:34.507Z,16.42
2018-05-31T10:28:02.022Z,17.60
2018-05-31T10:30:30.328Z,17.63
2018-05-31T10:32:57.874Z,16.50
2018-05-31T10:35:26.157Z,20.77
2018-05-31T10:37:53.700Z,20.07
2018-05-31T10:40:22.332Z,19.70
2018-05-31T10:42:49.854Z,19.30
2018-05-31T10:45:17.437Z,22.37
2018-05-31T10:47:45.512Z,22.60
2018-05-31T10:50:25.171Z,18.83
2018-05-31T10:55:55.847Z,21.00
2018-05-31T10:58:23.383Z,19.30
2018-05-31T11:00:51.293Z,18.80
2018-05-31T11:03:19.427Z,19.33
2018-05-31T11:05:46.965Z,19.03
2018-05-31T11:08:16.256Z,18.80
2018-05-31T11:10:43.829Z,18.37
2018-05-31T11:13:11.377Z,17.90
2018-05-31T11:15:38.914Z,16.60
2018-05-31T11:18:07.223Z,18.50
2018-05-31T11:20:34.753Z,17.53
2018-05-31T11:23:02.286Z,17.60
2018-05-31T11:25:30.096Z,16.60
2018-05-31T11:27:57.629Z,18.23
2018-05-31T11:30:25.918Z,20.40
2018-05-31T11:32:53.481Z,17.93
2018-05-31T11:35:21.003Z,17.33
2018-05-31T11:37:48.535Z,17.73
2018-05-31T11:40:17.960Z,17.16
2018-05-31T11:42:45.527Z,16.90
2018-05-31T11:45:15.473Z,17.55
2018-05-31T11:47:43.828Z,18.60
2018-05-31T11:50:12.230Z,17.00
2018-05-31T11:52:40.075Z,16.53
2018-05-31T11:55:07.638Z,19.53
2018-05-31T11:57:35.954Z,18.50
2018-05-31T12:00:03.485Z,17.15
2018-05-31T12:02:31.807Z,16.40
2018-05-31T12:04:59.331Z,19.90
2018-05-31T12:07:26.850Z,17.40
2018-05-31T12:09:55.242Z,16.10
2018-05-31T12:12:23.530Z,17.30
2018-05-31T12:14:51.062Z,16.20
2018-05-31T12:17:18.712Z,14.38
2018-05-31T12:19:47.031Z,13.67
2018-05-31T12:22:26.029Z,13.55
2018-05-31T12:29:58.142Z,15.53
2018-05-31T12:32:25.705Z,15.55
2018-05-31T12:34:53.343Z,14.93
2018-05-31T12:37:20.895Z,18.52
2018-05-31T12:39:48.417Z,19.60
2018-05-31T12:42:16.530Z,18.42
2018-05-31T12:44:44.144Z,15.47
2018-05-31T12:47:11.709Z,13.70
2018-05-31T12:49:39.622Z,12.97
2018-05-31T12:52:09.010Z,12.77
2018-05-31T12:54:36.574Z,11.50
2018-05-31T12:57:04.120Z,11.10
2018-05-31T12:59:31.928Z,12.50
2018-05-31T13:01:59.499Z,12.77
2018-05-31T13:04:27.809Z,12.30
2018-05-31T13:06:55.364Z,11.80
2018-05-31T13:09:22.924Z,11.43
2018-05-31T13:11:50.615Z,11.67
2018-05-31T13:14:19.577Z,9.83
2018-05-31T13:16:47.126Z,11.23
2018-05-31T13:19:15.742Z,12.07
2018-05-31T13:21:48.009Z,12.87
2018-05-31T13:24:16.457Z,11.90
2018-05-31T13:26:44.010Z,11.70
2018-05-31T13:29:11.895Z,12.03
2018-05-31T13:31:39.452Z,9.83
2018-05-31T13:34:06.975Z,8.97
2018-05-31T13:36:34.838Z,9.20
2018-05-31T13:39:02.372Z,10.23
2018-05-31T13:41:29.895Z,10.20
2018-05-31T13:43:57.451Z,9.80
2018-05-31T13:46:24.975Z,10.68
2018-05-31T13:48:52.518Z,9.73
2018-05-31T13:51:20.059Z,9.55
2018-05-31T13:53:47.602Z,10.07
2018-05-31T13:56:17.770Z,10.40
2018-05-31T13:58:45.818Z,10.90
2018-05-31T14:01:24.381Z,11.50
2018-05-31T14:13:52.727Z,9.20
2018-05-31T14:16:20.250Z,9.63
2018-05-31T14:18:48.530Z,9.63
2018-05-31T14:21:17.267Z,10.20
2018-05-31T14:23:44.796Z,10.40
2018-05-31T14:26:12.312Z,10.30
2018-05-31T14:28:40.626Z,9.40
2018-05-31T14:31:08.142Z,9.63
2018-05-31T14:33:35.649Z,9.60
2018-05-31T14:36:03.242Z,9.97
2018-05-31T14:38:30.758Z,9.30
2018-05-31T14:40:58.283Z,8.30
2018-05-31T14:43:25.826Z,9.00
2018-05-31T14:45:53.331Z,8.80
2018-05-31T14:48:20.857Z,9.60
2018-05-31T14:50:48.394Z,8.60
2018-05-31T14:53:17.235Z,8.93
2018-05-31T14:55:44.750Z,9.10
2018-05-31T14:58:13.195Z,8.80
2018-05-31T15:00:40.722Z,8.30
2018-05-31T15:03:09.007Z,8.70
2018-05-31T15:05:36.595Z,8.53
2018-05-31T15:08:04.242Z,9.00
2018-05-31T15:10:32.034Z,9.32
2018-05-31T15:12:59.631Z,8.23
2018-05-31T15:15:27.951Z,8.33
2018-05-31T15:17:56.248Z,8.20
2018-05-31T15:20:23.858Z,8.07
2018-05-31T15:22:52.135Z,8.63
2018-05-31T15:25:20.415Z,8.27
2018-05-31T15:27:47.976Z,8.20
2018-05-31T15:30:16.509Z,8.50
2018-05-31T15:32:44.023Z,9.17
2018-05-31T15:35:11.576Z,8.37
2018-05-31T15:37:39.094Z,8.50
2018-05-31T15:40:06.626Z,8.10
2018-05-31T15:42:34.583Z,10.20
2018-05-31T15:45:02.119Z,10.50
2018-05-31T15:47:29.659Z,10.57
2018-05-31T15:49:58.342Z,10.00
2018-05-31T15:52:26.706Z,10.40
2018-05-31T15:54:54.244Z,10.47
2018-05-31T15:57:21.802Z,9.57
2018-05-31T15:59:49.904Z,9.70
2018-05-31T16:02:18.354Z,9.47
2018-05-31T16:04:46.519Z,8.70
2018-05-31T16:07:25.275Z,8.82
2018-05-31T16:14:09.150Z,10.83
2018-05-31T16:16:37.451Z,10.17
2018-05-31T16:19:05.015Z,12.77
2018-05-31T16:21:32.879Z,16.40
2018-05-31T16:24:00.427Z,16.00
2018-05-31T16:26:28.715Z,17.48
2018-05-31T16:28:56.375Z,16.40
2018-05-31T16:31:23.941Z,16.65
2018-05-31T16:33:51.611Z,16.20
2018-05-31T16:36:19.170Z,15.00
2018-05-31T16:38:46.690Z,15.20
2018-05-31T16:41:16.323Z,13.88
2018-05-31T16:43:44.350Z,13.40
2018-05-31T16:46:11.878Z,12.57
2018-05-31T16:48:39.394Z,11.82
2018-05-31T16:51:06.953Z,10.97
2018-05-31T16:53:35.498Z,11.63
2018-05-31T16:56:04.486Z,11.53
2018-05-31T16:58:32.166Z,11.60
2018-05-31T17:01:00.554Z,11.48
2018-05-31T17:03:28.088Z,12.63
2018-05-31T17:05:56.181Z,11.10
2018-05-31T17:08:24.151Z,11.77
2018-05-31T17:10:51.787Z,12.40
2018-05-31T17:13:19.426Z,12.53
2018-05-31T17:15:46.954Z,13.97
2018-05-31T17:18:26.747Z,12.95
2018-05-31T17:23:20.131Z,17.00
2018-05-31T17:25:48.095Z,15.47
2018-05-31T17:28:16.684Z,16.97
2018-05-31T17:30:44.204Z,18.63
2018-05-31T17:33:11.751Z,16.40
2018-05-31T17:35:39.282Z,18.00
2018-05-31T17:38:06.839Z,19.23
2018-05-31T17:40:34.458Z,18.30
2018-05-31T17:43:02.053Z,17.43
2018-05-31T17:45:29.551Z,16.35
2018-05-31T17:47:57.431Z,15.20
2018-05-31T17:50:24.955Z,13.40
2018-05-31T17:52:52.479Z,14.55
2018-05-31T17:55:20.074Z,12.40
2018-05-31T17:57:47.566Z,12.20
2018-05-31T18:00:16.548Z,9.73
2018-05-31T18:02:44.791Z,8.87
2018-05-31T18:05:14.007Z,6.33
2018-05-31T18:07:41.531Z,7.10
2018-05-31T18:10:09.360Z,5.30
2018-05-31T18:12:36.881Z,3.03
2018-05-31T18:15:05.182Z,3.10
2018-05-31T18:17:32.742Z,3.37
2018-05-31T18:20:01.035Z,3.37
2018-05-31T18:22:28.559Z,3.30
2018-05-31T18:24:56.866Z,4.17
2018-05-31T18:27:24.424Z,5.47
2018-05-31T18:29:51.965Z,5.23
2018-05-31T18:32:19.600Z,6.25
2018-05-31T18:34:47.911Z,7.17
2018-05-31T18:37:16.424Z,7.35
2018-05-31T18:39:43.974Z,9.87
2018-05-31T18:42:11.517Z,9.97
2018-05-31T18:44:39.037Z,9.50
2018-05-31T18:47:06.596Z,10.57
2018-05-31T18:49:34.886Z,9.47
2018-05-31T18:52:02.670Z,9.82
2018-05-31T18:54:30.278Z,9.03
2018-05-31T18:56:57.807Z,9.13
2018-05-31T18:59:25.331Z,7.73
2018-05-31T19:01:52.879Z,7.33
2018-05-31T19:04:22.159Z,5.60
2018-05-31T19:06:50.539Z,5.00
2018-05-31T19:09:23.769Z,4.57
2018-05-31T19:11:51.955Z,5.20
2018-05-31T19:14:19.472Z,4.80
2018-05-31T19:16:47.844Z,4.27
2018-05-31T19:19:21.888Z,3.47
2018-05-31T19:21:49.439Z,3.80
2018-05-31T19:24:22.712Z,3.67
2018-05-31T19:26:51.026Z,3.77
2018-05-31T19:29:18.548Z,3.95
2018-05-31T19:31:46.087Z,3.80
2018-05-31T19:34:15.137Z,3.75
2018-05-31T19:36:48.425Z,4.23
2018-05-31T19:39:16.455Z,4.15
2018-05-31T19:41:44.013Z,4.97
2018-05-31T19:44:17.191Z,5.15
2018-05-31T19:46:44.724Z,4.60
2018-05-31T19:49:12.246Z,4.87
2018-05-31T19:51:45.889Z,4.50
2018-05-31T19:54:24.079Z,4.30
2018-05-31T20:10:01.343Z,5.73
2018-05-31T20:12:28.900Z,6.37
2018-05-31T20:14:56.443Z,6.50
2018-05-31T20:17:24.761Z,6.80
2018-05-31T20:19:52.362Z,6.90
2018-05-31T20:22:19.879Z,6.47
2018-05-31T20:24:48.343Z,8.00
2018-05-31T20:27:16.483Z,8.17
2018-05-31T20:29:44.881Z,8.17
2018-05-31T20:32:12.493Z,9.23
2018-05-31T20:34:40.420Z,9.93
2018-05-31T20:37:08.101Z,9.00
2018-05-31T20:39:35.661Z,9.90
2018-05-31T20:42:03.229Z,11.37
2018-05-31T20:44:30.768Z,11.60
2018-05-31T20:46:58.360Z,11.90
2018-05-31T20:49:25.988Z,12.63
2018-05-31T20:51:53.539Z,12.43
2018-05-31T20:54:21.616Z,12.52
2018-05-31T20:56:49.166Z,11.40
2018-05-31T20:59:16.715Z,12.03
2018-05-31T21:01:44.280Z,11.57
2018-05-31T21:04:11.828Z,12.07
2018-05-31T21:06:39.346Z,12.47
2018-05-31T21:09:07.019Z,11.83
2018-05-31T21:11:36.021Z,13.03
2018-05-31T21:14:03.576Z,12.90
2018-05-31T21:16:32.205Z,12.95
2018-05-31T21:18:59.847Z,12.70
2018-05-31T21:21:27.404Z,12.90
2018-05-31T21:23:55.009Z,13.33
2018-05-31T21:26:22.552Z,11.70
2018-05-31T21:28:50.306Z,12.63
2018-05-31T21:31:17.870Z,12.10
2018-05-31T21:33:45.448Z,12.03
2018-05-31T21:36:24.353Z,12.32
2018-05-31T21:41:26.671Z,12.33
2018-05-31T21:43:54.207Z,12.20
2018-05-31T21:46:21.730Z,13.23
2018-05-31T21:48:49.280Z,14.03
2018-05-31T21:51:17.564Z,13.90
2018-05-31T21:53:45.947Z,13.00
2018-05-31T21:56:15.059Z,12.30
2018-05-31T21:58:42.590Z,13.00
2018-05-31T22:01:10.133Z,13.00
2018-05-31T22:03:37.705Z,13.43
2018-05-31T22:06:05.992Z,13.53
2018-05-31T22:08:33.526Z,13.80
2018-05-31T22:11:01.847Z,13.70
2018-05-31T22:13:30.239Z,14.30
2018-05-31T22:15:57.772Z,15.10
2018-05-31T22:18:25.651Z,14.53
2018-05-31T22:20:53.179Z,14.30
2018-05-31T22:23:20.719Z,14.30
2018-05-31T22:25:49.054Z,15.47
2018-05-31T22:28:16.581Z,15.10
2018-05-31T22:30:44.199Z,13.77
2018-05-31T22:33:11.743Z,16.10
2018-05-31T22:35:39.263Z,13.83
2018-05-31T22:38:06.790Z,13.50
2018-05-31T22:40:35.626Z,14.83
2018-05-31T22:43:03.147Z,13.10
2018-05-31T22:45:31.435Z,15.70
2018-05-31T22:47:58.990Z,14.03
2018-05-31T22:50:26.526Z,14.18
2018-05-31T22:52:54.068Z,13.70
2018-05-31T22:55:21.628Z,13.07
2018-05-31T22:57:49.175Z,14.07
2018-05-31T23:00:17.393Z,14.68
2018-05-31T23:02:46.227Z,14.00
2018-05-31T23:05:26.714Z,14.82
2018-05-31T23:12:09.698Z,16.37
2018-05-31T23:14:38.550Z,16.40
2018-05-31T23:17:06.171Z,14.87
2018-05-31T23:19:34.264Z,16.30
2018-05-31T23:22:01.786Z,16.77
2018-05-31T23:24:29.319Z,15.27
2018-05-31T23:26:57.642Z,15.00
2018-05-31T23:29:25.164Z,14.03
2018-05-31T23:31:53.450Z,14.73
2018-05-31T23:34:21.752Z,14.97
2018-05-31T23:36:49.276Z,14.37
2018-05-31T23:39:16.799Z,14.07
2018-05-31T23:41:44.478Z,13.40
2018-05-31T23:44:13.704Z,14.40
2018-05-31T23:46:41.992Z,16.00
2018-05-31T23:49:09.536Z,15.73
2018-05-31T23:51:37.821Z,14.80
2018-05-31T23:54:05.353Z,15.00
2018-05-31T23:56:32.922Z,15.15
2018-05-31T23:59:01.223Z,12.98
